CY-0008 weather

CLOSED RAF Ayios Nikolaos Air Base
Larnarca District, Cyprus

Public forecast

Using degrees Celsius for public forecast. Weather courtesy of forecast.io.

Closest aviation weather report (METAR) to RAF Ayios Nikolaos Air Base

Closest report is Larnaca International Airport, 18.4 nm (34.1 km) SW. Retrieved 2019/12/15 20:30 UTC (7 minutes ago):

LCLK 152030Z 34005KT 9999 FEW030 12/09 Q1021 NOSIG

Closest aviation forecast (TAF) to RAF Ayios Nikolaos Air Base

Closest forecast is Larnaca International Airport, 18.4 nm (34.1 km) SW. Retrieved 2019/12/15 18:30 UTC (2 hours ago):

TAF LCLK 151730Z 1518/1618 34008KT 9999 FEW030 BECMG 1606/1609 04010KT